Farlington, Kansas
Current Conditions -  °F | °C
As of 8:35 PM on Sunday 23 Nov 2014 (Local Time) from KPTS Reporting Station
Light Rain Light Rain  
Wind Chill: 36°   Ceiling: 1700
Heat Index: 45°   Visibility: 7mi
Dew Point: 44°   Wind: 23mph
Humidity: 97%   Direction: 350°N
Pressure: 29.42"   Gusts: 33mph
Location:  37.62°N, 94.83°W
Report Text: KPTS 240235Z AUTO 35020G29KT 7SM -RA BKN017 OVC021 07/07 A2942 RMK AO2 P0001 T00700065
Loading
Personal Weather Stations






























Interactive Weather Map New forecast layout! Learn more

10-Day Weather Forecast

Advertisements
Track Severe Weather on mobile